sensor_id;sensor_type;location;lat;lon;timestamp;P1;durP1;ratioP1;P2;durP2;ratioP2
55342;SDS011;41215;45.076;20.956;2022-08-20T13:43:21;11.27;;;5.20;;
55342;SDS011;41215;45.076;20.956;2022-08-20T13:45:47;15.95;;;5.80;;
55342;SDS011;41215;45.076;20.956;2022-08-20T13:48:13;19.83;;;6.20;;
55342;SDS011;41215;45.076;20.956;2022-08-20T13:50:39;19.63;;;5.80;;
55342;SDS011;41215;45.076;20.956;2022-08-20T13:53:05;11.32;;;5.65;;
55342;SDS011;41215;45.076;20.956;2022-08-20T13:58:05;20.23;;;6.40;;
55342;SDS011;41215;45.076;20.956;2022-08-20T14:00:32;22.95;;;7.07;;
55342;SDS011;41215;45.076;20.956;2022-08-20T14:02:59;16.45;;;6.22;;
55342;SDS011;41215;45.076;20.956;2022-08-20T14:05:26;19.77;;;5.93;;
55342;SDS011;41215;45.076;20.956;2022-08-20T14:07:52;21.65;;;6.22;;
55342;SDS011;41215;45.076;20.956;2022-08-20T14:10:20;22.02;;;6.57;;
55342;SDS011;41215;45.076;20.956;2022-08-20T14:12:50;15.18;;;5.93;;
55342;SDS011;41215;45.076;20.956;2022-08-20T14:15:16;15.07;;;5.57;;
55342;SDS011;41215;45.076;20.956;2022-08-20T14:20:17;16.25;;;5.95;;
55342;SDS011;41215;45.076;20.956;2022-08-20T14:22:44;15.80;;;6.72;;
55342;SDS011;41215;45.076;20.956;2022-08-20T14:25:14;16.90;;;6.82;;
55342;SDS011;41215;45.076;20.956;2022-08-20T14:27:40;12.23;;;5.00;;
55342;SDS011;41215;45.076;20.956;2022-08-20T14:30:08;13.70;;;5.13;;
55342;SDS011;41215;45.076;20.956;2022-08-20T14:32:34;19.92;;;6.88;;
55342;SDS011;41215;45.076;20.956;2022-08-20T14:35:00;18.73;;;6.28;;
55342;SDS011;41215;45.076;20.956;2022-08-20T14:37:28;12.45;;;4.60;;
55342;SDS011;41215;45.076;20.956;2022-08-20T14:39:54;16.83;;;5.32;;
55342;SDS011;41215;45.076;20.956;2022-08-20T14:42:21;18.35;;;5.93;;
55342;SDS011;41215;45.076;20.956;2022-08-20T14:44:50;19.38;;;5.90;;
55342;SDS011;41215;45.076;20.956;2022-08-20T14:47:51;17.10;;;5.95;;
55342;SDS011;41215;45.076;20.956;2022-08-20T14:50:11;14.20;;;5.50;;
55342;SDS011;41215;45.076;20.956;2022-08-20T14:52:37;17.40;;;5.65;;
55342;SDS011;41215;45.076;20.956;2022-08-20T14:55:06;18.42;;;5.93;;
55342;SDS011;41215;45.076;20.956;2022-08-20T14:57:34;16.50;;;5.95;;
55342;SDS011;41215;45.076;20.956;2022-08-20T15:00:09;15.07;;;4.90;;
55342;SDS011;41215;45.076;20.956;2022-08-20T15:02:41;10.50;;;5.32;;
55342;SDS011;41215;45.076;20.956;2022-08-20T15:05:08;19.83;;;6.03;;
55342;SDS011;41215;45.076;20.956;2022-08-20T15:07:35;14.98;;;5.47;;
55342;SDS011;41215;45.076;20.956;2022-08-20T15:10:06;13.95;;;5.00;;
55342;SDS011;41215;45.076;20.956;2022-08-20T15:12:32;20.15;;;5.28;;
55342;SDS011;41215;45.076;20.956;2022-08-20T15:15:02;14.73;;;5.25;;
55342;SDS011;41215;45.076;20.956;2022-08-20T15:17:30;14.93;;;6.25;;
55342;SDS011;41215;45.076;20.956;2022-08-20T15:19:56;13.43;;;4.80;;
55342;SDS011;41215;45.076;20.956;2022-08-20T15:22:24;15.77;;;4.75;;
55342;SDS011;41215;45.076;20.956;2022-08-20T15:24:50;15.18;;;5.57;;
55342;SDS011;41215;45.076;20.956;2022-08-20T15:27:20;16.80;;;5.25;;
55342;SDS011;41215;45.076;20.956;2022-08-20T15:29:47;13.63;;;6.10;;
55342;SDS011;41215;45.076;20.956;2022-08-20T15:32:13;14.73;;;5.10;;
55342;SDS011;41215;45.076;20.956;2022-08-20T15:34:40;12.65;;;5.47;;
55342;SDS011;41215;45.076;20.956;2022-08-20T15:39:38;15.85;;;5.68;;
55342;SDS011;41215;45.076;20.956;2022-08-20T15:42:05;14.90;;;5.20;;
55342;SDS011;41215;45.076;20.956;2022-08-20T15:44:33;14.57;;;5.32;;
55342;SDS011;41215;45.076;20.956;2022-08-20T15:47:21;15.50;;;6.20;;
55342;SDS011;41215;45.076;20.956;2022-08-20T15:49:45;20.67;;;5.30;;
55342;SDS011;41215;45.076;20.956;2022-08-20T15:52:17;12.35;;;5.60;;
55342;SDS011;41215;45.076;20.956;2022-08-20T15:54:43;18.15;;;5.00;;
55342;SDS011;41215;45.076;20.956;2022-08-20T15:57:57;10.75;;;5.50;;
55342;SDS011;41215;45.076;20.956;2022-08-20T16:00:07;16.38;;;5.78;;
55342;SDS011;41215;45.076;20.956;2022-08-20T16:08:01;10.80;;;4.70;;
55342;SDS011;41215;45.076;20.956;2022-08-20T16:13:30;9.65;;;4.93;;
55342;SDS011;41215;45.076;20.956;2022-08-20T16:15:58;13.52;;;5.28;;
55342;SDS011;41215;45.076;20.956;2022-08-20T16:18:25;16.85;;;5.95;;
55342;SDS011;41215;45.076;20.956;2022-08-20T16:20:52;11.32;;;4.95;;
55342;SDS011;41215;45.076;20.956;2022-08-20T16:23:37;12.35;;;4.90;;
55342;SDS011;41215;45.076;20.956;2022-08-20T16:31:25;14.45;;;5.28;;
55342;SDS011;41215;45.076;20.956;2022-08-20T16:37:08;20.70;;;5.50;;
55342;SDS011;41215;45.076;20.956;2022-08-20T16:39:41;13.30;;;5.25;;
55342;SDS011;41215;45.076;20.956;2022-08-20T16:42:10;17.83;;;5.35;;
55342;SDS011;41215;45.076;20.956;2022-08-20T16:44:38;9.82;;;4.78;;
55342;SDS011;41215;45.076;20.956;2022-08-20T16:49:55;16.35;;;5.82;;
55342;SDS011;41215;45.076;20.956;2022-08-20T16:52:22;15.90;;;5.15;;
55342;SDS011;41215;45.076;20.956;2022-08-20T16:54:49;18.13;;;5.85;;
55342;SDS011;41215;45.076;20.956;2022-08-20T16:57:15;15.18;;;5.53;;
55342;SDS011;41215;45.076;20.956;2022-08-20T16:59:52;13.93;;;4.82;;
55342;SDS011;41215;45.076;20.956;2022-08-20T17:02:19;16.67;;;5.40;;
55342;SDS011;41215;45.076;20.956;2022-08-20T17:04:49;14.70;;;4.78;;
55342;SDS011;41215;45.076;20.956;2022-08-20T17:09:44;15.93;;;5.82;;
55342;SDS011;41215;45.076;20.956;2022-08-20T17:12:18;13.05;;;5.85;;
55342;SDS011;41215;45.076;20.956;2022-08-20T17:14:46;15.38;;;5.90;;
55342;SDS011;41215;45.076;20.956;2022-08-20T17:17:34;15.50;;;6.78;;
55342;SDS011;41215;45.076;20.956;2022-08-20T17:20:11;16.63;;;6.35;;
55342;SDS011;41215;45.076;20.956;2022-08-20T17:22:39;14.85;;;6.07;;
55342;SDS011;41215;45.076;20.956;2022-08-20T17:25:16;17.35;;;6.50;;
55342;SDS011;41215;45.076;20.956;2022-08-20T17:27:42;18.60;;;6.18;;
55342;SDS011;41215;45.076;20.956;2022-08-20T17:32:51;18.33;;;5.47;;
55342;SDS011;41215;45.076;20.956;2022-08-20T17:35:21;16.50;;;5.82;;
55342;SDS011;41215;45.076;20.956;2022-08-20T17:37:50;14.45;;;5.15;;
55342;SDS011;41215;45.076;20.956;2022-08-20T17:40:27;19.38;;;6.38;;
55342;SDS011;41215;45.076;20.956;2022-08-20T17:42:58;15.50;;;5.68;;
55342;SDS011;41215;45.076;20.956;2022-08-20T17:47:51;18.58;;;6.35;;
55342;SDS011;41215;45.076;20.956;2022-08-20T17:50:20;11.15;;;5.85;;
55342;SDS011;41215;45.076;20.956;2022-08-20T17:55:29;13.38;;;6.13;;
55342;SDS011;41215;45.076;20.956;2022-08-20T17:57:57;15.95;;;6.55;;
55342;SDS011;41215;45.076;20.956;2022-08-20T18:00:25;18.50;;;6.72;;
55342;SDS011;41215;45.076;20.956;2022-08-20T18:05:44;19.08;;;6.78;;
55342;SDS011;41215;45.076;20.956;2022-08-20T18:08:25;18.95;;;6.40;;
55342;SDS011;41215;45.076;20.956;2022-08-20T18:11:03;20.60;;;6.97;;
55342;SDS011;41215;45.076;20.956;2022-08-20T18:16:22;18.52;;;7.18;;
55342;SDS011;41215;45.076;20.956;2022-08-20T18:18:52;14.43;;;7.65;;
55342;SDS011;41215;45.076;20.956;2022-08-20T18:24:05;18.80;;;7.15;;
55342;SDS011;41215;45.076;20.956;2022-08-20T18:26:48;27.55;;;7.30;;
55342;SDS011;41215;45.076;20.956;2022-08-20T18:29:24;14.88;;;7.20;;
55342;SDS011;41215;45.076;20.956;2022-08-20T18:31:54;17.73;;;7.50;;
55342;SDS011;41215;45.076;20.956;2022-08-20T18:34:34;22.30;;;7.35;;
55342;SDS011;41215;45.076;20.956;2022-08-20T18:39:39;23.42;;;7.68;;
55342;SDS011;41215;45.076;20.956;2022-08-20T18:42:07;14.13;;;6.72;;
55342;SDS011;41215;45.076;20.956;2022-08-20T18:47:03;23.08;;;7.00;;
55342;SDS011;41215;45.076;20.956;2022-08-20T18:51:56;16.45;;;7.47;;
55342;SDS011;41215;45.076;20.956;2022-08-20T18:54:29;21.13;;;7.40;;
55342;SDS011;41215;45.076;20.956;2022-08-20T18:59:31;21.48;;;8.40;;
55342;SDS011;41215;45.076;20.956;2022-08-20T19:02:25;16.27;;;7.68;;
55342;SDS011;41215;45.076;20.956;2022-08-20T19:04:54;19.95;;;8.13;;
55342;SDS011;41215;45.076;20.956;2022-08-20T19:07:21;19.33;;;9.00;;
55342;SDS011;41215;45.076;20.956;2022-08-20T19:15:21;21.02;;;8.07;;
55342;SDS011;41215;45.076;20.956;2022-08-20T19:20:17;22.08;;;9.32;;
55342;SDS011;41215;45.076;20.956;2022-08-20T19:22:48;22.88;;;9.30;;
55342;SDS011;41215;45.076;20.956;2022-08-20T19:25:31;20.92;;;9.10;;
55342;SDS011;41215;45.076;20.956;2022-08-20T19:28:05;25.13;;;9.45;;
55342;SDS011;41215;45.076;20.956;2022-08-20T19:30:37;19.67;;;9.15;;
55342;SDS011;41215;45.076;20.956;2022-08-20T19:33:03;24.25;;;8.57;;
55342;SDS011;41215;45.076;20.956;2022-08-20T19:35:30;22.98;;;10.23;;
55342;SDS011;41215;45.076;20.956;2022-08-20T19:37:59;20.65;;;8.55;;
55342;SDS011;41215;45.076;20.956;2022-08-20T19:40:29;19.05;;;8.48;;
55342;SDS011;41215;45.076;20.956;2022-08-20T19:42:57;23.98;;;8.85;;
55342;SDS011;41215;45.076;20.956;2022-08-20T19:45:28;17.25;;;7.88;;
55342;SDS011;41215;45.076;20.956;2022-08-20T19:53:05;22.08;;;8.13;;
55342;SDS011;41215;45.076;20.956;2022-08-20T19:55:37;16.38;;;8.38;;
55342;SDS011;41215;45.076;20.956;2022-08-20T19:58:17;16.15;;;8.07;;
55342;SDS011;41215;45.076;20.956;2022-08-20T20:00:45;18.75;;;7.50;;
55342;SDS011;41215;45.076;20.956;2022-08-20T20:03:13;15.90;;;7.32;;
55342;SDS011;41215;45.076;20.956;2022-08-20T20:05:57;17.88;;;7.63;;
55342;SDS011;41215;45.076;20.956;2022-08-20T20:08:35;22.55;;;7.57;;
55342;SDS011;41215;45.076;20.956;2022-08-20T20:11:07;19.23;;;8.55;;
55342;SDS011;41215;45.076;20.956;2022-08-20T20:13:38;23.58;;;8.82;;
55342;SDS011;41215;45.076;20.956;2022-08-20T20:16:07;30.52;;;9.77;;
55342;SDS011;41215;45.076;20.956;2022-08-20T20:18:36;22.75;;;9.43;;
55342;SDS011;41215;45.076;20.956;2022-08-20T20:23:35;15.27;;;8.18;;
55342;SDS011;41215;45.076;20.956;2022-08-20T20:26:05;19.58;;;7.70;;
55342;SDS011;41215;45.076;20.956;2022-08-20T20:28:45;20.70;;;8.80;;
55342;SDS011;41215;45.076;20.956;2022-08-20T20:31:19;22.63;;;9.15;;
55342;SDS011;41215;45.076;20.956;2022-08-20T20:33:48;21.85;;;8.60;;
55342;SDS011;41215;45.076;20.956;2022-08-20T20:36:16;23.02;;;8.35;;
55342;SDS011;41215;45.076;20.956;2022-08-20T20:38:56;22.75;;;8.50;;
55342;SDS011;41215;45.076;20.956;2022-08-20T20:41:24;17.40;;;8.05;;
55342;SDS011;41215;45.076;20.956;2022-08-20T20:44:04;17.52;;;8.77;;
55342;SDS011;41215;45.076;20.956;2022-08-20T20:46:31;20.42;;;8.98;;
55342;SDS011;41215;45.076;20.956;2022-08-20T20:49:10;17.67;;;8.35;;
55342;SDS011;41215;45.076;20.956;2022-08-20T20:51:41;19.85;;;9.32;;
55342;SDS011;41215;45.076;20.956;2022-08-20T20:57:05;22.58;;;8.40;;
55342;SDS011;41215;45.076;20.956;2022-08-20T20:59:32;19.13;;;8.65;;
55342;SDS011;41215;45.076;20.956;2022-08-20T21:01:59;30.52;;;10.93;;
55342;SDS011;41215;45.076;20.956;2022-08-20T21:04:25;14.65;;;8.63;;
55342;SDS011;41215;45.076;20.956;2022-08-20T21:06:52;15.10;;;8.63;;
55342;SDS011;41215;45.076;20.956;2022-08-20T21:09:19;24.63;;;9.80;;
55342;SDS011;41215;45.076;20.956;2022-08-20T21:11:45;15.30;;;9.18;;
55342;SDS011;41215;45.076;20.956;2022-08-20T21:14:11;15.80;;;7.90;;
55342;SDS011;41215;45.076;20.956;2022-08-20T21:16:41;21.08;;;7.88;;
55342;SDS011;41215;45.076;20.956;2022-08-20T21:19:07;20.25;;;8.15;;
55342;SDS011;41215;45.076;20.956;2022-08-20T21:21:35;17.13;;;7.78;;
55342;SDS011;41215;45.076;20.956;2022-08-20T21:24:01;12.90;;;7.57;;
55342;SDS011;41215;45.076;20.956;2022-08-20T21:26:27;12.93;;;7.05;;
55342;SDS011;41215;45.076;20.956;2022-08-20T21:28:54;17.08;;;7.72;;
55342;SDS011;41215;45.076;20.956;2022-08-20T21:31:20;17.85;;;8.90;;
55342;SDS011;41215;45.076;20.956;2022-08-20T21:33:46;16.60;;;7.85;;
55342;SDS011;41215;45.076;20.956;2022-08-20T21:36:12;17.08;;;7.82;;
55342;SDS011;41215;45.076;20.956;2022-08-20T21:38:38;13.93;;;7.85;;
55342;SDS011;41215;45.076;20.956;2022-08-20T21:41:04;15.45;;;7.78;;
55342;SDS011;41215;45.076;20.956;2022-08-20T21:43:30;18.17;;;7.75;;
55342;SDS011;41215;45.076;20.956;2022-08-20T21:45:57;18.80;;;8.60;;
55342;SDS011;41215;45.076;20.956;2022-08-20T21:48:25;13.30;;;7.63;;
55342;SDS011;41215;45.076;20.956;2022-08-20T21:50:51;15.88;;;7.90;;
55342;SDS011;41215;45.076;20.956;2022-08-20T21:53:19;13.70;;;7.85;;
55342;SDS011;41215;45.076;20.956;2022-08-20T21:55:48;13.50;;;8.13;;
55342;SDS011;41215;45.076;20.956;2022-08-20T21:58:16;18.88;;;7.53;;
55342;SDS011;41215;45.076;20.956;2022-08-20T22:00:48;12.77;;;7.47;;
55342;SDS011;41215;45.076;20.956;2022-08-20T22:03:15;14.68;;;8.27;;
55342;SDS011;41215;45.076;20.956;2022-08-20T22:05:42;15.85;;;8.32;;
55342;SDS011;41215;45.076;20.956;2022-08-20T22:08:11;19.23;;;8.68;;
55342;SDS011;41215;45.076;20.956;2022-08-20T22:10:37;16.17;;;8.35;;
55342;SDS011;41215;45.076;20.956;2022-08-20T22:13:03;16.50;;;8.73;;
55342;SDS011;41215;45.076;20.956;2022-08-20T22:15:29;22.25;;;8.77;;
55342;SDS011;41215;45.076;20.956;2022-08-20T22:17:56;20.10;;;9.50;;
55342;SDS011;41215;45.076;20.956;2022-08-20T22:20:24;16.00;;;8.25;;
55342;SDS011;41215;45.076;20.956;2022-08-20T22:22:51;18.48;;;8.38;;
55342;SDS011;41215;45.076;20.956;2022-08-20T22:25:19;19.92;;;9.50;;
55342;SDS011;41215;45.076;20.956;2022-08-20T22:27:55;18.40;;;8.68;;
55342;SDS011;41215;45.076;20.956;2022-08-20T22:30:21;14.88;;;7.95;;
55342;SDS011;41215;45.076;20.956;2022-08-20T22:32:47;19.17;;;8.93;;
55342;SDS011;41215;45.076;20.956;2022-08-20T22:35:13;13.38;;;8.88;;
55342;SDS011;41215;45.076;20.956;2022-08-20T22:37:42;23.00;;;9.88;;
55342;SDS011;41215;45.076;20.956;2022-08-20T22:40:08;18.10;;;9.88;;
55342;SDS011;41215;45.076;20.956;2022-08-20T22:42:34;28.85;;;11.18;;
55342;SDS011;41215;45.076;20.956;2022-08-20T22:45:00;17.48;;;9.85;;
55342;SDS011;41215;45.076;20.956;2022-08-20T22:47:26;19.80;;;10.90;;
55342;SDS011;41215;45.076;20.956;2022-08-20T22:49:53;21.48;;;10.30;;
55342;SDS011;41215;45.076;20.956;2022-08-20T22:52:21;22.88;;;10.45;;
55342;SDS011;41215;45.076;20.956;2022-08-20T22:54:50;21.20;;;9.55;;
55342;SDS011;41215;45.076;20.956;2022-08-20T22:57:16;18.20;;;10.65;;
55342;SDS011;41215;45.076;20.956;2022-08-20T22:59:42;21.92;;;11.32;;
55342;SDS011;41215;45.076;20.956;2022-08-20T23:02:09;17.73;;;9.98;;
55342;SDS011;41215;45.076;20.956;2022-08-20T23:04:38;18.02;;;10.90;;
55342;SDS011;41215;45.076;20.956;2022-08-20T23:07:16;26.00;;;10.20;;
55342;SDS011;41215;45.076;20.956;2022-08-20T23:09:45;19.23;;;10.13;;
55342;SDS011;41215;45.076;20.956;2022-08-20T23:12:11;18.35;;;10.48;;
55342;SDS011;41215;45.076;20.956;2022-08-20T23:14:37;16.67;;;9.57;;
55342;SDS011;41215;45.076;20.956;2022-08-20T23:17:08;22.25;;;12.43;;
55342;SDS011;41215;45.076;20.956;2022-08-20T23:19:35;23.75;;;12.45;;
55342;SDS011;41215;45.076;20.956;2022-08-20T23:22:02;34.80;;;13.05;;
55342;SDS011;41215;45.076;20.956;2022-08-20T23:24:28;27.58;;;12.38;;
55342;SDS011;41215;45.076;20.956;2022-08-20T23:26:54;26.48;;;13.48;;
55342;SDS011;41215;45.076;20.956;2022-08-20T23:29:21;27.67;;;14.27;;
55342;SDS011;41215;45.076;20.956;2022-08-20T23:31:48;22.77;;;13.98;;
55342;SDS011;41215;45.076;20.956;2022-08-20T23:34:14;17.73;;;11.35;;
55342;SDS011;41215;45.076;20.956;2022-08-20T23:36:56;26.33;;;11.77;;
55342;SDS011;41215;45.076;20.956;2022-08-20T23:39:23;23.80;;;11.82;;
55342;SDS011;41215;45.076;20.956;2022-08-20T23:41:49;20.80;;;11.68;;
55342;SDS011;41215;45.076;20.956;2022-08-20T23:44:15;28.05;;;13.85;;
55342;SDS011;41215;45.076;20.956;2022-08-20T23:46:41;27.75;;;15.55;;
55342;SDS011;41215;45.076;20.956;2022-08-20T23:49:08;24.55;;;16.90;;
55342;SDS011;41215;45.076;20.956;2022-08-20T23:51:34;23.77;;;14.35;;
55342;SDS011;41215;45.076;20.956;2022-08-20T23:54:00;19.50;;;12.05;;
55342;SDS011;41215;45.076;20.956;2022-08-20T23:56:26;25.52;;;11.95;;
55342;SDS011;41215;45.076;20.956;2022-08-20T23:58:52;21.67;;;11.55;;
